Volk Field Camp Douglas US
ICAO: KVOK
IATA: VOK
Category: Medium
Scheduled Services: No

Elevation: 912 ft
TransAlt. 18000 ft.

Airport Communications:
APP/DEP:135.25
CTAF:127.5
GND:121.9
HARDWOOD RANGE:132.025
SHEBOYGAN RANGE:26.04
PTD:37.22
TWR:127.5

KVOK Zoom In..

If you have problems with the map follow the link
https://www.worldairports.se/pages/airport.php?
ICAO=KVOK

Runways:

(A) RW 09 length 9000 ft width 150 ft
---- / hdg 89

(B) RW 27 length 9000 ft width 150 ft
ILS 108.50 / hdg 269

Location; KVOK
Day. 11 / Time. 13.56 Zulu
* Altimeter: 30.34
* Temperature: -17° c. -1.4°f.
* Wind from: 300° Speed 07 kn.
Dewpoint: -20° c.
Visibility: 10 Statute Miles.
Clouds: Clear (automated report).

KVOK 111356Z 30007KT 10SM CLR M17/M20 A3034 RMK AO2A SLP302


Wind From 300°
Speed 07 kn.

 
 
jpsmedia worldairports.se 2019   terms of use